Main page
METAR-TAF:

METAR-TAF

Airports :

Orange-Caritat Air Base

Orange, France

latitude: 44-08N, longitude: 004-50E, elevation: 60 m

Current weather observation

The report was made 26 minutes ago, at 05:30 UTC
Calm wind
Temperature 16°C
Humidity 82%
Pressure 1018 hPa
Visibility 10 km or more
no clouds below 1500 m and no cumulonimbus

METAR: LFMO 250530Z AUTO 00000KT CAVOK 16/13 Q1018 NOSIG

Time: 07:56 (05:56 UTC)

Forecast

The report was made 3 hours and 56 minutes ago, at 02:00 UTC
Forecast valid from 25 at 03 UTC to 26 at 03 UTC
Wind 2 kt from variable directions
Visibility 10 km or more
no clouds below 1500 m and no cumulonimbus
Temporary
from 25 at 17 UTC to 25 at 22 UTC
Wind 12 kt from the South/Southwest

TAF: LFMO 250200Z 2503/2603 VRB02KT CAVOK TEMPO 2517/2522 20012KT

Weather observations and forecasts of more than 4000 airports (METAR and TAF reports).

The available stations are represented by yellow and red dots on the map.

Hover mouse over dot to see the name of the station.

Then click to see weather observations and forecasts.

To change the map : click on the green buttons with a black cross to zoom in, on the green button with a dash to zoom out, or on the green arrows for adjacent maps.


METAR-TAF: